Time;durP1;ratioP1;P1;durP2;ratioP2;P2;SDS_P1;SDS_P2;PMS_P1;PMS_P2;Temp;Humidity;BMP_temperature;BMP_pressure;BME280_temperature;BME280_humidity;BME280_pressure;Samples;Min_cycle;Max_cycle;Signal;HPM_P1;HPM_P2
2022/04/09 00:00:13;;;;;;;12.70;3.30;;;;;;;2.67;100.00;148120.31;5025226;28;20022;-67
2022/04/09 00:02:39;;;;;;;10.30;3.47;;;;;;;2.76;100.00;148143.44;5015793;28;20034;-67
2022/04/09 00:05:05;;;;;;;14.33;3.67;;;;;;;2.68;100.00;148122.88;5021354;28;20132;-67
2022/04/09 00:07:31;;;;;;;13.90;3.00;;;;;;;2.96;100.00;148193.63;5019464;28;20536;-67
2022/04/09 00:09:56;;;;;;;14.67;3.30;;;;;;;2.94;100.00;148189.75;5022555;28;20026;-67
2022/04/09 00:12:22;;;;;;;15.87;3.50;;;;;;;2.94;100.00;148189.75;5022965;28;20091;-66
2022/04/09 00:14:47;;;;;;;15.83;3.23;;;;;;;3.01;100.00;148205.19;5001388;28;20029;-67
2022/04/09 00:17:12;;;;;;;11.80;3.30;;;;;;;3.17;100.00;148246.38;5024508;28;20397;-67
2022/04/09 00:19:41;;;;;;;9.83;2.70;;;;;;;3.16;100.00;148243.81;5007783;28;20061;-67
2022/04/09 00:22:06;;;;;;;8.23;2.87;;;;;;;3.08;100.00;148223.22;5026414;28;20468;-67
2022/04/09 00:24:32;;;;;;;10.97;2.90;;;;;;;3.16;100.00;148243.81;5026458;28;20044;-67
2022/04/09 00:26:57;;;;;;;15.40;2.67;;;;;;;3.18;100.00;148250.25;5014371;28;20423;-67
2022/04/09 00:29:22;;;;;;;13.33;2.80;;;;;;;3.13;100.00;148237.34;5022547;28;20036;-67
2022/04/09 00:31:48;;;;;;;12.77;2.83;;;;;;;3.21;100.00;148256.66;5031105;28;20037;-67
2022/04/09 00:34:13;;;;;;;9.87;2.70;;;;;;;3.18;100.00;148248.94;5029796;28;20107;-67
2022/04/09 00:36:39;;;;;;;10.47;2.50;;;;;;;3.04;100.00;148214.22;5030887;28;20392;-67
2022/04/09 00:39:04;;;;;;;14.70;2.90;;;;;;;3.02;100.00;148207.75;5028891;28;20051;-67
2022/04/09 00:41:30;;;;;;;8.50;2.37;;;;;;;2.96;100.00;148192.34;5013305;28;20029;-67
2022/04/09 00:43:55;;;;;;;8.80;2.70;;;;;;;2.81;100.00;148156.31;5019546;28;20461;-67
2022/04/09 00:46:21;;;;;;;14.00;2.77;;;;;;;2.71;100.00;148130.59;5030387;28;20056;-67
2022/04/09 00:48:46;;;;;;;11.30;2.73;;;;;;;2.54;100.00;148088.13;5029049;28;20041;-67
2022/04/09 00:51:12;;;;;;;13.10;3.20;;;;;;;2.41;100.00;148053.41;5029321;28;20028;-67
2022/04/09 00:53:41;;;;;;;20.00;3.10;;;;;;;2.33;100.00;148035.44;5025009;28;20572;-67
2022/04/09 00:56:16;;;;;;;10.20;2.73;;;;;;;2.22;100.00;148007.13;5029921;28;20022;-67
2022/04/09 00:59:02;;;;;;;15.23;3.57;;;;;;;2.14;100.00;147986.56;5026456;28;20047;-67
2022/04/09 01:01:29;;;;;;;11.93;3.30;;;;;;;2.25;100.00;148013.56;5022960;28;20021;-67
2022/04/09 01:03:55;;;;;;;13.40;3.93;;;;;;;2.25;100.00;148014.84;5025616;28;20026;-67
2022/04/09 01:06:21;;;;;;;17.60;3.80;;;;;;;2.31;100.00;148030.28;5027194;28;20025;-67
2022/04/09 01:08:47;;;;;;;19.83;3.30;;;;;;;2.38;100.00;148045.69;5026012;28;20515;-67
2022/04/09 01:11:13;;;;;;;18.80;3.80;;;;;;;2.17;100.00;147994.25;5024852;28;20064;-67
2022/04/09 01:13:40;;;;;;;15.73;3.23;;;;;;;2.24;100.00;148010.97;5021170;28;20361;-66
2022/04/09 01:16:05;;;;;;;19.30;3.23;;;;;;;2.24;100.00;148012.28;5019105;28;20044;-67
2022/04/09 01:18:33;;;;;;;12.10;2.83;;;;;;;2.24;100.00;148012.28;5019874;28;20026;-67
2022/04/09 01:21:00;;;;;;;16.23;3.50;;;;;;;2.20;100.00;148002.00;5030370;28;20029;-67
2022/04/09 01:23:26;;;;;;;12.13;3.20;;;;;;;2.31;100.00;148030.28;5022483;28;20075;-67
2022/04/09 01:25:51;;;;;;;12.00;3.00;;;;;;;2.43;100.00;148058.59;5026329;28;20471;-67
2022/04/09 01:28:17;;;;;;;10.27;2.20;;;;;;;2.53;100.00;148084.25;5020017;28;20113;-67
2022/04/09 01:30:44;;;;;;;11.53;2.30;;;;;;;2.56;100.00;148092.00;5019285;28;20441;-67
2022/04/09 01:33:18;;;;;;;13.47;2.53;;;;;;;2.58;100.00;148097.16;5020635;28;20038;-67
2022/04/09 01:35:43;;;;;;;14.07;2.70;;;;;;;2.50;100.00;148076.56;5024302;28;20041;-67
2022/04/09 01:38:09;;;;;;;8.33;2.33;;;;;;;2.43;100.00;148059.88;5005358;28;20477;-67
2022/04/09 01:40:34;;;;;;;12.77;2.73;;;;;;;2.45;100.00;148063.72;5028886;28;20037;-67
2022/04/09 01:43:00;;;;;;;12.37;2.90;;;;;;;2.38;100.00;148046.97;5022255;28;20080;-67
2022/04/09 01:45:27;;;;;;;12.10;2.67;;;;;;;2.33;100.00;148035.44;5025459;28;20766;-67
2022/04/09 01:47:53;;;;;;;17.57;3.30;;;;;;;2.31;100.00;148030.28;5020792;28;20029;-67
2022/04/09 01:50:19;;;;;;;11.70;2.33;;;;;;;2.35;100.00;148040.56;5024587;28;20075;-67
2022/04/09 01:52:44;;;;;;;10.70;3.00;;;;;;;2.54;100.00;148086.81;5018000;28;20044;-67
2022/04/09 01:55:09;;;;;;;11.03;2.90;;;;;;;2.56;100.00;148093.28;5026027;28;20037;-67
2022/04/09 01:57:35;;;;;;;14.57;2.83;;;;;;;2.68;100.00;148122.88;5021958;28;20054;-67
2022/04/09 02:00:00;;;;;;;11.80;3.53;;;;;;;2.72;100.00;148131.88;5014830;28;20025;-67
2022/04/09 02:02:26;;;;;;;10.10;3.23;;;;;;;2.73;100.00;148135.72;5020436;28;20035;-68
2022/04/09 02:04:51;;;;;;;12.33;2.83;;;;;;;2.79;100.00;148151.19;5004654;28;20474;-68
2022/04/09 02:07:19;;;;;;;9.30;2.73;;;;;;;2.88;100.00;148174.31;5021440;28;20043;-68
2022/04/09 02:09:44;;;;;;;7.50;2.20;;;;;;;2.82;100.00;148158.88;5023524;28;20030;-68
2022/04/09 02:12:10;;;;;;;14.27;3.20;;;;;;;2.62;100.00;148107.44;5021682;28;20060;-68
2022/04/09 02:14:35;;;;;;;10.23;3.10;;;;;;;2.48;100.00;148071.41;5022838;28;20034;-68
2022/04/09 02:17:02;;;;;;;13.20;3.90;;;;;;;2.34;100.00;148038.00;5025436;28;20032;-68
2022/04/09 02:19:27;;;;;;;10.80;2.90;;;;;;;2.23;100.00;148009.69;5026088;28;20021;-68
2022/04/09 02:21:52;;;;;;;12.67;2.97;;;;;;;2.20;100.00;148002.00;5024257;28;20033;-68
2022/04/09 02:24:18;;;;;;;19.40;4.20;;;;;;;1.98;100.00;147946.72;5023870;28;20428;-68
2022/04/09 02:26:43;;;;;;;12.47;3.80;;;;;;;1.90;100.00;147926.13;5025024;28;20416;-68
2022/04/09 02:29:10;;;;;;;16.17;3.70;;;;;;;1.91;100.00;147927.41;5020227;28;20469;-68
2022/04/09 02:31:36;;;;;;;15.07;3.80;;;;;;;1.95;100.00;147937.72;5023458;28;20037;-68
2022/04/09 02:34:01;;;;;;;14.53;3.70;;;;;;;1.94;100.00;147935.13;5022040;28;20493;-68
2022/04/09 02:36:28;;;;;;;13.33;3.27;;;;;;;1.92;100.00;147931.25;5023740;28;20029;-68
2022/04/09 02:38:54;;;;;;;18.17;3.57;;;;;;;1.85;100.00;147912.03;5025288;28;20029;-68
2022/04/09 02:41:19;;;;;;;12.37;3.50;;;;;;;1.98;100.00;147945.44;5022528;28;20060;-68
2022/04/09 02:43:46;;;;;;;16.37;3.47;;;;;;;1.99;100.00;147948.00;5023412;28;20037;-68
2022/04/09 02:46:12;;;;;;;14.00;3.30;;;;;;;1.88;100.00;147919.72;5023650;28;20014;-68
2022/04/09 02:48:37;;;;;;;8.10;3.03;;;;;;;1.91;100.00;147928.69;5018461;28;20060;-68
2022/04/09 02:51:02;;;;;;;12.10;3.17;;;;;;;1.97;100.00;147942.88;5028145;28;20049;-68
2022/04/09 02:53:28;;;;;;;13.30;3.33;;;;;;;2.08;100.00;147971.16;5018576;28;20028;-68
2022/04/09 02:55:54;;;;;;;12.37;2.73;;;;;;;2.13;100.00;147983.97;5025296;28;20481;-68
2022/04/09 02:58:19;;;;;;;17.93;3.13;;;;;;;2.03;100.00;147958.25;5025546;28;20457;-68
2022/04/09 03:00:44;;;;;;;15.10;3.40;;;;;;;2.00;100.00;147950.56;5020726;28;20057;-68
2022/04/09 03:03:10;;;;;;;17.53;4.10;;;;;;;1.95;100.00;147937.72;5022389;28;20025;-68
2022/04/09 03:05:35;;;;;;;9.00;3.00;;;;;;;2.04;100.00;147962.13;5023605;28;20483;-68
2022/04/09 03:08:01;;;;;;;10.83;2.77;;;;;;;2.07;100.00;147968.59;5020758;28;20021;-68
2022/04/09 03:10:26;;;;;;;12.67;3.40;;;;;;;1.97;100.00;147944.16;5021453;28;20108;-68
2022/04/09 03:12:52;;;;;;;9.97;2.80;;;;;;;1.95;100.00;147939.00;5026754;28;20029;-68
2022/04/09 03:15:17;;;;;;;13.53;2.90;;;;;;;1.91;100.00;147927.41;5013671;28;20025;-68
2022/04/09 03:17:43;;;;;;;10.83;3.37;;;;;;;1.93;100.00;147932.56;5015933;28;20033;-68
2022/04/09 03:20:09;;;;;;;14.10;3.47;;;;;;;1.91;100.00;147927.41;5024577;28;20026;-68
2022/04/09 03:22:35;;;;;;;11.13;3.03;;;;;;;2.03;100.00;147958.25;5025321;28;20048;-68
2022/04/09 03:25:02;;;;;;;14.57;3.37;;;;;;;1.97;100.00;147942.88;5022768;28;20381;-67
2022/04/09 03:27:28;;;;;;;9.23;2.90;;;;;;;1.96;100.00;147941.59;5027589;28;20414;-68
2022/04/09 03:29:54;;;;;;;15.10;2.97;;;;;;;1.87;100.00;147917.16;5024739;28;20030;-68
2022/04/09 03:32:21;;;;;;;5.77;2.17;;;;;;;1.92;100.00;147931.25;5030631;28;20524;-67
2022/04/09 03:34:46;;;;;;;13.67;3.40;;;;;;;1.89;100.00;147922.28;5027351;28;20772;-68
2022/04/09 03:37:12;;;;;;;12.33;2.73;;;;;;;1.98;100.00;147946.72;5011568;28;20032;-68
2022/04/09 03:39:38;;;;;;;12.73;3.20;;;;;;;1.96;100.00;147940.31;5028758;28;20430;-67
2022/04/09 03:42:05;;;;;;;10.80;3.30;;;;;;;1.90;100.00;147926.13;5018188;28;20107;-67
2022/04/09 03:44:30;;;;;;;15.07;3.47;;;;;;;1.85;100.00;147912.03;5029177;28;20405;-67
2022/04/09 03:47:03;;;;;;;12.97;3.30;;;;;;;1.83;100.00;147906.88;5029033;28;20022;-67
2022/04/09 03:49:32;;;;;;;14.40;3.23;;;;;;;1.81;100.00;147901.69;5025793;28;20021;-68
2022/04/09 03:51:58;;;;;;;11.97;2.90;;;;;;;1.82;100.00;147905.59;5024320;28;20107;-67
2022/04/09 03:54:24;;;;;;;15.00;3.90;;;;;;;1.66;100.00;147865.72;5024850;28;20056;-67
2022/04/09 03:56:49;;;;;;;13.33;3.47;;;;;;;1.54;100.00;147834.91;5015732;28;20448;-68
2022/04/09 03:59:15;;;;;;;12.10;3.87;;;;;;;1.66;100.00;147865.72;5019095;28;20025;-67
2022/04/09 04:01:44;;;;;;;18.47;3.97;;;;;;;1.66;100.00;147865.72;5021974;28;20051;-67
2022/04/09 04:04:10;;;;;;;14.70;4.30;;;;;;;1.54;100.00;147833.59;5025000;28;20124;-67
2022/04/09 04:06:36;;;;;;;16.10;3.97;;;;;;;1.59;100.00;147847.78;5016879;28;20014;-67
2022/04/09 04:09:01;;;;;;;12.23;3.60;;;;;;;1.62;100.00;147855.47;5022312;28;20037;-67
2022/04/09 04:11:27;;;;;;;10.43;3.37;;;;;;;1.68;100.00;147869.56;5021597;28;20041;-68
2022/04/09 04:13:53;;;;;;;9.80;3.43;;;;;;;1.70;100.00;147876.03;5030166;28;20025;-67
2022/04/09 04:16:18;;;;;;;17.17;4.00;;;;;;;1.67;100.00;147867.00;5029229;28;20025;-67
2022/04/09 04:18:44;;;;;;;17.40;3.33;;;;;;;1.69;100.00;147873.44;5020388;28;20497;-67
2022/04/09 04:21:09;;;;;;;20.47;4.03;;;;;;;1.66;100.00;147864.44;5028843;28;20033;-67
2022/04/09 04:23:35;;;;;;;13.43;3.73;;;;;;;1.52;100.00;147829.75;5027904;28;20537;-67
2022/04/09 04:26:01;;;;;;;11.40;3.43;;;;;;;1.61;100.00;147851.63;5016292;28;20026;-67
2022/04/09 04:28:26;;;;;;;13.47;3.57;;;;;;;1.69;100.00;147873.44;5025353;28;20021;-67
2022/04/09 04:30:52;;;;;;;16.20;4.27;;;;;;;1.77;100.00;147894.00;5025689;28;20034;-67
2022/04/09 04:33:17;;;;;;;19.00;3.97;;;;;;;1.87;100.00;147917.16;5017225;28;20115;-67
2022/04/09 04:35:42;;;;;;;9.40;3.87;;;;;;;1.88;100.00;147919.72;5026633;28;20526;-67
2022/04/09 04:38:08;;;;;;;16.13;3.77;;;;;;;2.00;100.00;147950.56;5025756;28;20400;-67
2022/04/09 04:40:33;;;;;;;13.70;3.50;;;;;;;2.04;100.00;147962.13;5019242;28;20025;-67
2022/04/09 04:42:59;;;;;;;14.70;2.93;;;;;;;2.04;100.00;147960.84;5017851;28;20108;-67
2022/04/09 04:45:24;;;;;;;11.10;3.23;;;;;;;1.99;100.00;147948.00;5026271;28;20499;-67
2022/04/09 04:47:50;;;;;;;12.00;3.20;;;;;;;1.94;100.00;147935.13;5026254;28;20025;-67
2022/04/09 04:50:17;;;;;;;10.00;2.80;;;;;;;1.98;100.00;147945.44;5028105;28;20108;-67
2022/04/09 04:52:43;;;;;;;10.97;3.00;;;;;;;1.97;100.00;147944.16;5027315;28;20190;-67
2022/04/09 04:55:10;;;;;;;11.80;2.90;;;;;;;1.89;100.00;147922.28;5024648;28;20033;-67
2022/04/09 04:57:46;;;;;;;9.33;2.60;;;;;;;2.02;100.00;147955.69;5023813;28;20052;-67
2022/04/09 05:00:15;;;;;;;8.77;2.60;;;;;;;2.00;100.00;147950.56;5014749;28;20075;-67
2022/04/09 05:02:41;;;;;;;14.90;3.03;;;;;;;2.05;100.00;147963.41;5021635;28;20025;-67
2022/04/09 05:05:07;;;;;;;11.33;3.60;;;;;;;2.06;100.00;147966.03;5023018;28;20090;-67
2022/04/09 05:07:52;;;;;;;12.73;2.97;;;;;;;2.07;100.00;147968.59;5028268;28;20099;-67
2022/04/09 05:10:23;;;;;;;7.00;2.80;;;;;;;2.09;100.00;147972.44;5020214;28;20052;-67
2022/04/09 05:12:49;;;;;;;8.67;2.80;;;;;;;2.01;100.00;147954.41;5025847;28;20026;-67
2022/04/09 05:15:16;;;;;;;8.37;3.17;;;;;;;2.12;100.00;147980.13;5018059;28;20052;-67
2022/04/09 05:17:42;;;;;;;14.13;3.60;;;;;;;2.07;100.00;147968.59;5026146;28;20056;-67
2022/04/09 05:20:10;;;;;;;11.40;2.87;;;;;;;2.03;100.00;147959.56;5025607;28;20029;-67
2022/04/09 05:22:41;;;;;;;12.27;2.90;;;;;;;2.08;100.00;147971.16;5021759;28;20139;-67
2022/04/09 05:25:07;;;;;;;9.93;2.80;;;;;;;2.16;100.00;147991.69;5026582;28;20503;-67
2022/04/09 05:27:32;;;;;;;10.13;2.87;;;;;;;2.18;100.00;147996.88;5026749;28;20033;-67
2022/04/09 05:29:58;;;;;;;14.43;3.37;;;;;;;2.19;100.00;147999.44;5020508;28;20366;-67
2022/04/09 05:32:23;;;;;;;13.67;3.23;;;;;;;2.26;100.00;148017.41;5022650;28;20021;-67
2022/04/09 05:34:49;;;;;;;10.93;3.00;;;;;;;2.29;100.00;148025.09;5019707;28;20116;-67
2022/04/09 05:37:15;;;;;;;14.67;3.27;;;;;;;2.34;100.00;148038.00;5026838;28;20033;-67
2022/04/09 05:39:42;;;;;;;12.80;2.67;;;;;;;2.44;100.00;148061.16;5023994;28;20033;-67
2022/04/09 05:42:08;;;;;;;12.00;3.40;;;;;;;2.45;100.00;148065.00;5019499;28;20047;-67
2022/04/09 05:44:33;;;;;;;9.80;2.90;;;;;;;2.55;100.00;148089.44;5023913;28;20010;-67
2022/04/09 05:47:00;;;;;;;14.00;3.13;;;;;;;2.58;100.00;148097.16;5025100;28;20056;-67
2022/04/09 05:49:26;;;;;;;12.90;3.23;;;;;;;2.61;100.00;148106.13;5020373;28;20025;-67
2022/04/09 05:51:51;;;;;;;10.83;3.20;;;;;;;3.14;100.00;148238.63;5022219;28;20461;-67
2022/04/09 05:54:17;;;;;;;10.37;2.70;;;;;;;3.68;100.00;148375.09;5021771;28;20017;-67
2022/04/09 05:56:42;;;;;;;9.40;2.40;;;;;;;3.91;100.00;148434.31;5028047;28;20079;-67
2022/04/09 05:59:07;;;;;;;5.53;2.07;;;;;;;4.41;100.00;148560.53;5027051;28;20068;-67
2022/04/09 06:01:33;;;;;;;9.03;1.97;;;;;;;4.34;100.00;148542.47;5023966;28;20022;-67
2022/04/09 06:03:58;;;;;;;10.17;2.13;;;;;;;3.98;100.00;148452.31;5024061;28;20032;-67
2022/04/09 06:06:24;;;;;;;10.60;2.33;;;;;;;3.75;100.00;148393.06;5022624;28;20021;-67
2022/04/09 06:08:50;;;;;;;8.70;2.00;;;;;;;4.44;100.00;148566.97;5017526;28;20477;-67
2022/04/09 06:11:16;;;;;;;6.90;2.13;;;;;;;4.58;100.00;148604.31;5028655;28;20036;-67
2022/04/09 06:13:41;;;;;;;10.23;1.90;;;;;;;4.87;100.00;148677.78;5018214;28;20477;-68
2022/04/09 06:16:08;;;;;;;10.20;2.03;;;;;;;5.54;100.00;148847.94;5016536;28;20037;-68
2022/04/09 06:18:38;;;;;;;6.70;1.90;;;;;;;6.04;100.00;148973.09;5025009;28;20634;-68
2022/04/09 06:21:07;;;;;;;9.50;1.70;;;;;;;5.36;100.00;148800.25;5028388;28;20050;-68
2022/04/09 06:23:33;;;;;;;10.23;1.87;;;;;;;5.36;100.00;148800.25;5021007;28;20499;-68
2022/04/09 06:25:58;;;;;;;8.00;2.07;;;;;;;5.75;100.00;148900.81;5012984;28;20057;-68
2022/04/09 06:28:24;;;;;;;7.50;1.30;;;;;;;5.59;100.00;143811.94;5019214;28;20024;-68
2022/04/09 06:30:50;;;;;;;10.47;1.60;;;;;;;4.69;100.00;139232.75;5023533;28;20033;-67
2022/04/09 06:33:15;;;;;;;5.90;1.50;;;;;;;4.46;100.00;142864.59;5021707;28;20033;-67
2022/04/09 06:35:40;;;;;;;5.77;1.90;;;;;;;4.89;100.00;145320.16;5005742;28;20032;-68
2022/04/09 06:38:06;;;;;;;5.37;1.60;;;;;;;5.95;100.00;144909.50;5025555;28;20061;-68
2022/04/09 06:40:31;;;;;;;9.67;1.60;;;;;;;5.54;100.00;133731.69;5024090;28;20434;-68
2022/04/09 06:42:57;;;;;;;6.93;1.40;;;;;;;6.17;100.00;130857.50;5022323;28;20100;-68
2022/04/09 06:45:23;;;;;;;7.03;1.40;;;;;;;5.62;100.00;118698.94;5023161;28;20556;-68
2022/04/09 06:47:49;;;;;;;6.50;1.83;;;;;;;6.15;100.00;118473.09;5025113;28;20140;-68
2022/04/09 06:50:14;;;;;;;5.40;1.70;;;;;;;6.07;100.00;114451.47;5014324;28;20018;-68
2022/04/09 06:52:40;;;;;;;6.40;1.30;;;;;;;6.74;100.00;108576.50;5011003;28;20452;-67
2022/04/09 06:55:10;;;;;;;10.77;1.60;;;;;;;6.26;100.00;92203.44;5024808;28;20025;-68
2022/04/09 06:57:38;;;;;;;6.30;1.97;;;;;;;6.56;100.00;96565.13;5028766;28;20060;-68
2022/04/09 07:00:06;;;;;;;5.43;1.43;;;;;;;6.61;100.00;88611.47;5020725;28;20592;-68
2022/04/09 07:02:32;;;;;;;7.50;1.50;;;;;;;6.53;100.00;85618.16;5032723;28;20025;-68
2022/04/09 07:04:58;;;;;;;11.90;1.83;;;;;;;6.56;100.00;84628.78;5030438;28;20041;-68
2022/04/09 07:07:25;;;;;;;15.53;2.20;;;;;;;6.59;100.00;74057.81;5025451;28;20018;-68
2022/04/09 07:09:52;;;;;;;7.73;1.63;;;;;;;7.22;100.00;80751.47;5025623;28;20032;-68
2022/04/09 07:12:18;;;;;;;8.00;1.40;;;;;;;6.35;100.00;67765.06;5032418;28;20035;-68
2022/04/09 07:14:43;;;;;;;8.00;1.87;;;;;;;6.60;100.00;67135.50;5028041;28;20041;-68
2022/04/09 07:17:08;;;;;;;7.07;1.47;;;;;;;7.21;100.00;63582.50;5017487;28;20025;-68
2022/04/09 07:19:34;;;;;;;5.97;1.27;;;;;;;6.08;100.00;60500.78;5020379;28;20050;-67
2022/04/09 07:21:59;;;;;;;3.90;1.40;;;;;;;6.67;100.00;62206.81;5025964;28;20532;-67
2022/04/09 07:24:25;;;;;;;7.47;1.33;;;;;;;8.12;100.00;57751.22;5029874;28;20044;-67
2022/04/09 07:26:51;;;;;;;5.73;1.17;;;;;;;6.17;100.00;34009.00;5032583;28;20013;-67
2022/04/09 07:29:16;;;;;;;5.50;1.50;;;;;;;6.83;100.00;60579.84;5024168;28;20374;-67
2022/04/09 07:31:42;;;;;;;5.00;1.17;;;;;;;7.44;100.00;42588.59;5014135;28;20025;-68
2022/04/09 07:34:07;;;;;;;6.87;1.20;;;;;;;7.17;100.00;31459.63;5031161;28;20061;-67
2022/04/09 07:36:32;;;;;;;10.27;1.70;;;;;;;7.32;100.00;23973.13;5013313;28;20017;-67
2022/04/09 07:38:58;;;;;;;8.47;1.50;;;;;;;7.52;100.00;45870.78;5025165;28;20121;-67
2022/04/09 07:41:23;;;;;;;4.87;1.33;;;;;;;8.40;100.00;17831.19;5015789;28;20018;-68
2022/04/09 07:43:48;;;;;;;5.37;1.20;;;;;;;7.09;100.00;1585.81;5020922;28;20025;-68
2022/04/09 07:46:14;;;;;;;8.30;1.33;;;;;;;7.05;100.00;41905.16;5031123;28;20433;-68
2022/04/09 07:48:39;;;;;;;5.83;1.07;;;;;;;6.90;100.00;51063.69;5031176;28;20028;-68
2022/04/09 07:51:04;;;;;;;4.37;1.10;;;;;;;6.83;100.00;65845.06;5031937;28;20029;-68
2022/04/09 07:53:30;;;;;;;2.97;0.80;;;;;;;6.67;100.00;64181.31;5029458;28;20470;-67
2022/04/09 07:55:56;;;;;;;7.50;1.30;;;;;;;8.44;100.00;52516.34;5022564;28;20057;-68
2022/04/09 07:58:22;;;;;;;4.13;0.93;;;;;;;8.75;100.00;-4875.91;5028334;28;20111;-68
2022/04/09 08:00:49;;;;;;;5.80;1.23;;;;;;;8.06;100.00;-19377.13;5024696;28;20025;-68
2022/04/09 08:03:15;;;;;;;5.13;1.10;;;;;;;7.85;100.00;-19371.72;5018859;28;20493;-69
2022/04/09 08:05:41;;;;;;;6.60;1.20;;;;;;;6.84;100.00;-19345.56;5031652;28;20065;-68
2022/04/09 08:08:07;;;;;;;9.07;1.10;;;;;;;6.55;100.00;16793.66;5028456;28;20127;-67
2022/04/09 08:10:34;;;;;;;5.93;1.00;;;;;;;6.66;100.00;10638.16;5012291;28;20022;-68
2022/04/09 08:12:59;;;;;;;9.57;1.60;;;;;;;6.88;100.00;20377.13;5015133;28;20025;-68
2022/04/09 08:15:25;;;;;;;7.43;1.30;;;;;;;7.58;100.00;-27.09;5028502;28;20524;-68
2022/04/09 08:17:54;;;;;;;5.17;0.90;;;;;;;7.46;100.00;-19361.56;5031423;28;20104;-68
2022/04/09 08:20:20;;;;;;;4.63;1.10;;;;;;;7.09;100.00;-19352.03;5030431;28;20065;-67
2022/04/09 08:22:46;;;;;;;6.00;0.90;;;;;;;7.26;100.00;-19356.41;5031230;28;20029;-67
2022/04/09 08:25:11;;;;;;;4.87;1.00;;;;;;;7.28;100.00;-19272.34;5029376;28;20555;-67
2022/04/09 08:27:38;;;;;;;3.37;0.70;;;;;;;7.07;100.00;-15144.69;5027425;28;20028;-68
2022/04/09 08:30:07;;;;;;;9.33;1.90;;;;;;;8.13;100.00;19774.53;5007866;28;20032;-69
2022/04/09 08:32:33;;;;;;;3.57;0.70;;;;;;;8.21;100.00;-19381.09;5030740;28;20078;-69
2022/04/09 08:35:00;;;;;;;3.47;0.70;;;;;;;8.91;100.00;-19399.16;5030769;28;20064;-69
2022/04/09 08:37:25;;;;;;;3.53;0.80;;;;;;;8.89;100.00;-19398.63;5030315;28;20504;-69
2022/04/09 08:39:51;;;;;;;4.73;0.90;;;;;;;9.29;100.00;-19409.03;5028667;28;20030;-69
2022/04/09 08:42:16;;;;;;;4.47;0.90;;;;;;;9.29;100.00;-19409.19;5031155;28;20013;-70
2022/04/09 08:44:42;;;;;;;3.43;0.90;;;;;;;9.49;100.00;-19414.19;4998693;28;20037;-70
2022/04/09 08:47:11;;;;;;;4.33;0.70;;;;;;;8.94;100.00;-19400.09;5024451;28;20029;-69
2022/04/09 08:49:40;;;;;;;5.67;0.90;;;;;;;9.38;100.00;-19411.53;5012388;28;20040;-69
2022/04/09 08:52:08;;;;;;;4.07;1.00;;;;;;;9.94;100.00;-19426.03;5030394;28;20496;-69
2022/04/09 08:54:36;;;;;;;6.73;1.00;;;;;;;8.77;100.00;-19395.59;5025772;28;20162;-68
2022/04/09 08:57:02;;;;;;;7.37;1.50;;;;;;;8.86;100.00;-19397.97;5030723;28;20017;-69
2022/04/09 08:59:27;;;;;;;6.43;1.37;;;;;;;8.44;100.00;-19387.03;5026720;28;20323;-68
2022/04/09 09:01:53;;;;;;;8.73;1.50;;;;;;;8.45;100.00;-19387.28;5019517;28;20100;-68
2022/04/09 09:04:19;;;;;;;6.40;1.87;;;;;;;8.45;100.00;-19387.41;5025780;28;20437;-67
2022/04/09 09:06:45;;;;;;;6.17;1.20;;;;;;;7.98;100.00;-19375.16;5030313;28;20074;-67
2022/04/09 09:09:32;;;;;;;8.60;1.70;;;;;;;7.87;100.00;-19372.25;5028206;28;20041;-67
2022/04/09 09:12:00;;;;;;;5.77;1.00;;;;;;;9.84;100.00;-19423.41;5029745;28;20111;-69
2022/04/09 09:14:33;;;;;;;7.63;1.53;;;;;;;9.80;100.00;-19422.34;5008507;28;20041;-70
2022/04/09 09:17:00;;;;;;;3.53;1.20;;;;;;;9.52;100.00;-19414.97;5030126;28;20428;-69
2022/04/09 09:19:47;;;;;;;7.50;1.13;;;;;;;9.87;100.00;-19424.06;5028712;28;20103;-69
2022/04/09 09:22:13;;;;;;;5.63;1.10;;;;;;;8.70;100.00;-19393.88;5026620;28;20496;-68
2022/04/09 09:24:39;;;;;;;5.30;1.00;;;;;;;8.85;100.00;-19397.56;5024440;28;20148;-68
2022/04/09 09:27:05;;;;;;;3.73;1.20;;;;;;;9.47;100.00;-19413.66;5011704;28;20549;-70
2022/04/09 09:29:33;;;;;;;5.60;1.13;;;;;;;10.13;100.00;-19430.78;5018637;28;20048;-69
2022/04/09 09:32:01;;;;;;;6.07;0.87;;;;;;;8.90;100.00;-19398.91;5020215;28;20527;-69
2022/04/09 09:34:28;;;;;;;5.70;1.13;;;;;;;8.97;100.00;-19400.75;5017673;28;20064;-68
2022/04/09 09:36:54;;;;;;;9.37;1.83;;;;;;;8.56;100.00;-19390.19;5029686;28;20086;-68
2022/04/09 09:39:22;;;;;;;4.93;1.10;;;;;;;8.68;100.00;-19393.22;5024345;28;20037;-67
2022/04/09 09:41:53;;;;;;;7.27;1.27;;;;;;;10.24;100.00;-19433.69;5029826;28;20040;-69
2022/04/09 09:44:20;;;;;;;7.57;1.40;;;;;;;9.60;100.00;-19417.09;5026702;28;20171;-69
2022/04/09 09:46:49;;;;;;;8.50;1.50;;;;;;;9.25;100.00;-19408.00;5029466;28;20465;-68
2022/04/09 09:49:16;;;;;;;7.20;1.67;;;;;;;10.22;100.00;-19433.16;5025544;28;20151;-70
2022/04/09 09:51:42;;;;;;;6.30;1.40;;;;;;;10.59;100.00;-19442.63;5027469;28;20038;-70
2022/04/09 09:54:13;;;;;;;6.27;1.13;;;;;;;10.96;100.00;-19452.22;5027438;28;20036;-70
2022/04/09 09:56:43;;;;;;;8.83;1.40;;;;;;;10.47;100.00;-19439.72;5011689;28;20029;-70
2022/04/09 09:59:10;;;;;;;5.72;1.30;;;;;;;10.47;100.00;-19439.72;5027104;28;20033;-70
2022/04/09 10:01:41;;;;;;;6.43;1.20;;;;;;;12.07;100.00;-19481.03;5029108;28;20086;-70
2022/04/09 10:04:08;;;;;;;4.38;0.90;;;;;;;11.00;100.00;-19453.41;5025529;28;20429;-70
2022/04/09 10:06:35;;;;;;;7.05;1.30;;;;;;;11.40;100.00;-19463.66;5029588;28;20024;-70
2022/04/09 10:09:06;;;;;;;3.97;1.20;;;;;;;11.32;100.00;-19461.69;5019114;28;20025;-70
2022/04/09 10:11:42;;;;;;;6.35;1.00;;;;;;;12.30;100.00;-19487.06;5025309;28;20040;-69
2022/04/09 10:14:10;;;;;;;5.70;1.15;;;;;;;12.58;100.00;-19494.16;5021761;28;20037;-69
2022/04/09 10:16:36;;;;;;;4.90;1.33;;;;;;;11.83;100.00;-19474.72;5029135;28;20092;-68
2022/04/09 10:19:04;;;;;;;5.57;1.40;;;;;;;11.00;100.00;-19453.41;5025401;28;20025;-68
2022/04/09 10:21:32;;;;;;;9.73;1.00;;;;;;;9.00;100.00;-19401.66;5029142;28;20037;-67
2022/04/09 10:23:58;;;;;;;4.73;0.80;;;;;;;8.57;100.00;-19390.31;5024505;28;20083;-67
2022/04/09 10:26:25;;;;;;;6.17;0.90;;;;;;;8.21;100.00;-19381.09;5018562;28;20458;-67
2022/04/09 10:28:51;;;;;;;4.43;0.80;;;;;;;7.07;100.00;-19351.38;5015054;28;20072;-67
2022/04/09 10:31:22;;;;;;;1.50;0.50;;;;;;;5.69;100.00;-19315.69;5029299;28;20021;-67
2022/04/09 10:33:56;;;;;;;3.80;0.60;;;;;;;5.34;100.00;5764.09;5021557;28;20042;-67
2022/04/09 10:36:39;;;;;;;2.83;0.63;;;;;;;5.44;100.00;40806.69;5015801;28;20018;-67
2022/04/09 10:39:36;;;;;;;3.63;0.70;;;;;;;5.63;100.00;66037.22;5030036;28;20386;-67
2022/04/09 10:42:02;;;;;;;2.20;0.93;;;;;;;6.22;100.00;79620.84;5028022;28;20025;-67
2022/04/09 10:44:42;;;;;;;4.10;0.80;;;;;;;7.15;100.00;60283.97;5020706;28;20076;-67
2022/04/09 10:47:08;;;;;;;5.70;0.73;;;;;;;8.00;100.00;1916.84;5032490;28;20928;-67
2022/04/09 10:49:34;;;;;;;4.50;0.70;;;;;;;7.63;100.00;-19366.03;5029778;28;20465;-67
2022/04/09 10:52:14;;;;;;;4.83;0.90;;;;;;;8.04;100.00;-19376.59;5032686;28;20030;-67
2022/04/09 10:54:43;;;;;;;5.93;1.00;;;;;;;8.32;100.00;-19384.00;5031841;28;20040;-67
2022/04/09 10:57:19;;;;;;;2.83;0.67;;;;;;;7.75;100.00;-19369.06;5032738;28;20042;-67
2022/04/09 10:59:54;;;;;;;4.90;0.90;;;;;;;8.01;100.00;-19375.81;5018248;28;20474;-67
2022/04/09 11:02:19;;;;;;;4.77;0.80;;;;;;;8.63;100.00;-19392.03;5018126;28;20588;-67
2022/04/09 11:04:45;;;;;;;4.43;0.80;;;;;;;8.00;100.00;-19375.69;5027102;28;20026;-67
2022/04/09 11:07:17;;;;;;;3.97;0.87;;;;;;;7.93;100.00;-19373.81;5032467;28;20022;-67
2022/04/09 11:09:56;;;;;;;2.30;0.80;;;;;;;7.77;100.00;-19369.59;5028743;28;20025;-67
2022/04/09 11:12:38;;;;;;;6.30;1.00;;;;;;;7.93;100.00;-19373.81;5032437;28;20040;-67
2022/04/09 11:15:15;;;;;;;7.05;1.48;;;;;;;8.32;100.00;-19383.84;5031893;28;20033;-67
2022/04/09 11:17:45;;;;;;;2.57;0.50;;;;;;;8.20;100.00;-19380.94;5027665;28;20037;-67
2022/04/09 11:20:23;;;;;;;2.73;0.43;;;;;;;7.98;100.00;-19375.16;5029123;28;20437;-67